Leyendecker II PSRC Data

Date Time Air Temperature Relative Humidity Dewpoint Windchill Heat Index Wind Speed Wind Dir. Rain Solar Radiation Soil Temperature
2m 2m 3m 3m 10cm
US/Mountain F % F F F MPH deg in MJ/m^2 F
max avg avg
2020-08-01 00:05:00 84.9 24.8 45.0 84.9 84.9 19.6 24.4 16.8 323.0 328.0 0.00 0.0000093 79.5
2020-08-01 00:10:00 84.5 28.6 48.4 84.5 84.5 26.7 31.9 25.5 343.2 336.4 0.00 0.0000025 79.5
2020-08-01 00:15:00 82.1 34.7 51.5 82.1 82.1 31.5 32.1 23.8 326.6 334.0 0.00 0.0000000 79.5
2020-08-01 00:20:00 77.5 51.7 58.4 77.5 77.5 15.1 27.2 21.2 331.5 338.1 0.00 0.0000000 79.4
2020-08-01 00:25:00 72.9 60.3 58.3 72.9 72.9 17.8 20.6 16.4 3.0 342.9 0.01 0.0000000 79.4
2020-08-01 00:30:00 72.3 61.9 58.6 72.3 72.3 9.6 18.1 12.6 4.8 355.5 0.00 0.0000000 79.4
2020-08-01 00:35:00 72.9 59.5 57.9 72.9 72.9 8.3 16.0 10.4 336.4 357.7 0.00 0.0000000 79.4
2020-08-01 00:40:00 72.4 61.0 58.2 72.4 72.4 11.0 12.2 9.0 324.5 342.8 0.00 0.0000000 79.3
2020-08-01 00:45:00 75.2 47.3 53.8 75.2 75.2 14.9 17.6 13.6 20.1 23.9 0.00 0.0000000 79.3
2020-08-01 00:50:00 76.0 45.9 53.7 76.0 76.0 8.3 17.6 12.5 30.9 25.8 0.00 0.0000000 79.3
2020-08-01 00:55:00 76.6 38.4 49.4 76.6 76.6 4.2 8.7 5.7 64.3 69.6 0.00 0.0002680 79.3
2020-08-01 01:00:00 79.4 32.7 47.5 79.4 79.4 4.9 13.0 6.5 205.6 55.5 0.00 0.0000683 79.2
2020-08-01 01:05:00 79.1 35.9 49.8 79.1 79.1 9.7 10.8 6.7 133.4 121.5 0.00 0.0001710 79.3
2020-08-01 01:10:00 78.4 35.8 49.1 78.4 78.4 16.2 17.8 12.9 73.1 99.9 0.00 0.0000000 79.3
2020-08-01 01:15:00 77.9 39.0 51.0 77.9 77.9 17.2 25.3 19.7 141.7 116.1 0.00 0.0000000 79.2
2020-08-01 01:20:00 77.6 35.6 48.2 77.6 77.6 13.5 25.3 18.5 133.0 142.0 0.00 0.0000000 79.2
2020-08-01 01:25:00 78.2 34.1 47.6 78.2 78.2 20.8 21.4 17.4 142.7 140.5 0.00 0.0000145 79.2
2020-08-01 01:30:00 79.3 30.4 45.5 79.3 79.3 12.6 22.8 16.6 174.4 165.0 0.00 0.0003433 79.2
2020-08-01 01:35:00 80.7 32.3 48.3 80.7 80.7 4.9 18.7 8.2 223.0 186.9 0.00 0.0001260 79.1
2020-08-01 01:40:00 80.5 30.2 46.4 80.5 80.5 3.7 5.6 3.6 220.1 203.3 0.00 0.0000000 79.1
2020-08-01 01:45:00 80.4 31.4 47.4 80.4 80.4 5.3 5.8 4.2 286.6 243.6 0.00 0.0000000 79.1
2020-08-01 01:50:00 80.2 32.4 48.0 80.2 80.2 5.1 6.2 4.1 317.2 286.9 0.00 0.0000000 79.1
2020-08-01 01:55:00 79.8 35.3 49.9 79.8 79.8 6.7 6.7 5.0 2.8 317.2 0.00 0.0000000 79.0
2020-08-01 02:00:00 80.3 31.2 47.1 80.3 80.3 2.8 11.5 8.2 95.0 29.0 0.00 0.0000000 79.0
2020-08-01 02:05:00 80.0 31.9 47.5 80.0 80.0 8.7 9.6 7.2 6.1 30.9 0.00 0.0000000 79.0
2020-08-01 02:10:00 80.2 32.0 47.7 80.2 80.2 5.8 11.3 7.7 4.0 8.3 0.00 0.0000000 78.9
2020-08-01 02:15:00 79.9 33.4 48.5 79.9 79.9 6.3 7.2 5.9 349.1 352.9 0.00 0.0000000 78.9
2020-08-01 02:20:00 79.3 33.8 48.4 79.3 79.3 3.3 6.9 5.7 41.8 333.9 0.00 0.0000000 78.8
2020-08-01 02:25:00 78.9 35.5 49.3 78.9 78.9 1.5 3.7 1.6 258.0 53.0 0.00 0.0000000 78.8
2020-08-01 02:30:00 77.7 37.0 49.4 77.7 77.7 3.1 3.1 1.5 290.7 285.7 0.00 0.0000000 78.8
2020-08-01 02:35:00 77.2 38.7 50.1 77.2 77.2 3.7 5.3 4.0 295.2 285.2 0.00 0.0000000 78.8
2020-08-01 02:40:00 76.4 41.7 51.5 76.4 76.4 2.8 3.8 2.6 138.4 252.8 0.00 0.0000000 78.7
2020-08-01 02:45:00 75.4 45.4 52.8 75.4 75.4 2.8 2.8 2.3 187.2 174.8 0.00 0.0000000 78.7
2020-08-01 02:50:00 74.8 50.7 55.3 74.8 74.8 1.2 2.8 2.1 140.5 177.0 0.00 0.0000000 78.7
2020-08-01 02:55:00 74.0 52.3 55.4 74.0 74.0 2.4 2.8 1.8 314.3 299.8 0.00 0.0000000 78.7
2020-08-01 03:00:00 72.9 58.5 57.5 72.9 72.9 4.6 6.2 3.0 298.7 324.4 0.00 0.0000000 78.6
2020-08-01 03:05:00 72.2 58.5 56.8 72.2 72.2 1.9 4.4 2.2 338.3 320.1 0.00 0.0000000 78.6
2020-08-01 03:10:00 71.7 61.0 57.5 71.7 71.7 3.3 3.5 2.3 290.1 302.9 0.00 0.0000000 78.6
2020-08-01 03:15:00 71.4 54.2 54.1 71.4 71.4 4.2 4.4 2.6 162.0 257.5 0.00 0.0000000 78.6
2020-08-01 03:20:00 71.8 63.3 58.6 71.8 71.8 3.7 5.8 3.8 186.1 180.2 0.00 0.0000000 78.6
2020-08-01 03:25:00 71.7 53.8 54.1 71.7 71.7 3.0 3.7 2.8 249.5 218.6 0.00 0.0000000 78.6
2020-08-01 03:30:00 71.9 53.6 54.1 71.9 71.9 1.9 2.6 2.0 292.3 240.2 0.00 0.0000000 78.5
2020-08-01 03:35:00 70.6 62.0 57.0 70.6 70.6 2.2 4.0 2.9 281.5 312.8 0.00 0.0000000 78.5
2020-08-01 03:40:00 70.5 64.0 57.7 70.5 70.5 2.1 3.1 1.8 340.6 308.6 0.00 0.0000000 78.5
2020-08-01 03:45:00 69.9 61.2 55.9 69.9 69.9 3.7 3.7 2.4 310.5 305.5 0.00 0.0000000 78.5
2020-08-01 03:50:00 70.7 50.9 51.7 70.7 70.7 2.4 5.1 2.8 283.4 289.1 0.00 0.0000025 78.5
2020-08-01 03:55:00 71.5 53.3 53.6 71.5 71.5 6.0 7.6 4.2 293.3 302.2 0.00 0.0000000 78.5
2020-08-01 04:00:00 71.6 57.3 55.7 71.6 71.6 2.6 6.2 4.8 246.9 293.7 0.00 0.0000000 78.4
2020-08-01 04:05:00 71.0 56.9 54.9 71.0 71.0 1.9 4.2 2.6 303.9 282.3 0.00 0.0000000 78.4
2020-08-01 04:10:00 70.3 58.0 54.9 70.3 70.3 5.5 5.8 4.3 298.5 305.0 0.00 0.0000000 78.4
2020-08-01 04:15:00 70.5 58.9 55.4 70.5 70.5 2.8 6.2 3.8 313.0 307.7 0.00 0.0000000 78.4
2020-08-01 04:20:00 70.5 55.8 53.9 70.5 70.5 3.1 3.5 2.5 288.8 279.5 0.00 0.0000000 78.4
2020-08-01 04:25:00 70.8 52.8 52.7 70.8 70.8 4.4 5.6 3.6 253.0 280.5 0.00 0.0000000 78.3
2020-08-01 04:30:00 71.1 54.6 54.0 71.1 71.1 2.4 4.4 2.7 292.5 290.5 0.00 0.0000000 78.3
2020-08-01 04:35:00 70.6 57.2 54.7 70.6 70.6 1.9 2.2 1.8 338.5 14.0 0.00 0.0000000 78.3
2020-08-01 04:40:00 69.6 60.4 55.3 69.6 69.6 3.1 4.2 3.1 328.9 318.5 0.00 0.0000000 78.3
2020-08-01 04:45:00 68.9 62.1 55.4 68.9 68.9 1.3 2.8 2.2 181.2 337.0 0.00 0.0000000 78.3
2020-08-01 04:50:00 68.6 60.1 54.2 68.6 68.6 4.9 5.1 2.6 292.7 263.3 0.00 0.0000000 78.2
2020-08-01 04:55:00 69.9 54.3 52.7 69.9 69.9 3.8 5.5 4.1 304.9 283.6 0.00 0.0000000 78.2
2020-08-01 05:00:00 70.1 58.7 55.0 70.1 70.1 2.6 4.7 3.5 271.8 291.1 0.00 0.0000000 78.2
2020-08-01 05:05:00 68.3 67.3 57.1 68.3 68.3 3.1 4.6 3.2 323.1 317.0 0.00 0.0000000 78.2
2020-08-01 05:10:00 68.0 64.3 55.5 68.0 68.0 5.6 6.7 5.6 288.7 306.0 0.00 0.0000000 78.2
2020-08-01 05:15:00 68.3 63.8 55.5 68.3 68.3 2.1 5.3 3.7 313.2 292.2 0.00 0.0000000 78.1
2020-08-01 05:20:00 68.3 64.7 56.0 68.3 68.3 2.4 2.4 1.3 147.0 174.8 0.00 0.0000000 78.1
2020-08-01 05:25:00 67.5 66.7 56.0 67.5 67.5 1.2 3.1 1.7 197.8 94.9 0.00 0.0000000 78.1
2020-08-01 05:30:00 67.3 65.6 55.4 67.3 67.3 4.4 4.4 2.1 281.3 255.9 0.00 0.0000000 78.1
2020-08-01 05:35:00 67.5 67.0 56.2 67.5 67.5 2.6 5.1 3.7 311.7 287.2 0.00 0.0000000 78.1
2020-08-01 05:40:00 67.4 68.1 56.5 67.4 67.4 3.7 4.9 3.3 219.6 161.3 0.00 0.0000000 78.0
2020-08-01 05:45:00 68.4 65.2 56.3 68.4 68.4 3.3 5.3 3.5 113.0 235.6 0.00 0.0000000 78.0
2020-08-01 05:50:00 67.9 67.4 56.7 67.9 67.9 2.4 4.4 3.2 212.4 183.7 0.00 0.0000000 78.0
2020-08-01 05:55:00 68.3 62.1 54.8 68.3 68.3 1.5 3.7 2.4 64.1 47.7 0.00 0.0000088 78.0
2020-08-01 06:00:00 68.5 64.7 56.2 68.5 68.5 0.0 2.2 1.0 162.5 139.6 0.00 0.0000000 78.0
2020-08-01 06:05:00 68.3 64.4 55.8 68.3 68.3 1.5 3.1 1.7 192.2 150.0 0.00 0.0000000 77.9
2020-08-01 06:10:00 67.4 67.3 56.2 67.4 67.4 3.3 3.5 2.7 193.3 176.0 0.00 0.0000000 77.9
2020-08-01 06:15:00 66.7 74.3 58.3 66.7 66.7 1.9 4.0 2.9 238.0 201.4 0.00 0.0000000 77.9
2020-08-01 06:20:00 66.3 74.5 57.9 66.3 66.3 2.1 3.1 1.6 214.4 224.6 0.00 0.0000738 77.9
2020-08-01 06:25:00 65.6 75.8 57.8 65.6 65.6 2.6 3.5 2.3 286.3 310.6 0.00 0.0006140 77.8
2020-08-01 06:30:00 65.3 77.3 58.0 65.3 65.3 2.8 2.8 2.3 299.0 312.7 0.00 0.0015002 77.8
2020-08-01 06:35:00 64.7 78.6 57.9 64.7 64.7 1.3 3.7 2.8 251.4 278.6 0.00 0.0025683 77.8
2020-08-01 06:40:00 64.8 78.8 58.0 64.8 64.8 0.0 1.3 0.2 5.1 275.3 0.00 0.0036809 77.8
2020-08-01 06:45:00 64.7 80.0 58.4 64.7 64.7 2.4 4.4 2.8 272.6 323.9 0.00 0.0051474 77.8
2020-08-01 06:50:00 64.8 80.8 58.8 64.8 64.8 1.7 3.5 2.4 344.6 296.9 0.00 0.0064771 77.7
2020-08-01 06:55:00 65.1 81.0 59.1 65.1 65.1 2.1 3.3 2.6 342.7 334.4 0.00 0.0073655 77.7
2020-08-01 07:00:00 65.3 80.0 59.0 65.3 65.3 4.2 4.4 2.3 306.1 293.9 0.00 0.0083311 77.7
2020-08-01 07:05:00 65.9 76.2 58.2 65.9 65.9 4.7 6.0 4.8 275.0 315.1 0.00 0.0094680 77.7
2020-08-01 07:10:00 66.5 76.1 58.7 66.5 66.5 4.0 4.4 3.7 313.7 309.9 0.00 0.0103885 77.6
2020-08-01 07:15:00 67.1 72.5 58.0 67.1 67.1 3.5 4.6 3.7 327.5 309.7 0.00 0.0129729 77.6
2020-08-01 07:20:00 67.8 70.0 57.7 67.8 67.8 4.0 4.0 2.6 315.2 314.6 0.00 0.0236878 77.6
2020-08-01 07:25:00 68.6 68.4 57.8 68.6 68.6 4.4 5.3 4.0 327.4 315.9 0.00 0.0447800 77.6
2020-08-01 07:30:00 69.6 65.1 57.3 69.6 69.6 3.0 4.6 3.4 347.3 327.3 0.00 0.0496022 77.6
2020-08-01 07:35:00 70.7 63.1 57.5 70.7 70.7 3.8 3.8 3.0 3.8 333.5 0.00 0.0541504 77.6
2020-08-01 07:40:00 71.2 65.3 59.0 71.2 71.2 4.0 4.2 3.6 5.6 4.6 0.00 0.0585739 77.5
2020-08-01 07:45:00 71.6 64.0 58.8 71.6 71.6 3.7 5.1 4.1 350.4 344.4 0.00 0.0632819 77.5
2020-08-01 07:50:00 71.7 63.9 58.8 71.7 71.7 4.9 6.0 4.7 0.1 3.9 0.00 0.0680986 77.5
2020-08-01 07:55:00 72.0 63.7 59.0 72.0 72.0 4.0 6.5 5.0 339.0 353.5 0.00 0.0728575 77.5
2020-08-01 08:00:00 72.8 59.9 58.1 72.8 72.8 4.7 6.2 4.5 341.7 351.4 0.00 0.0782726 77.5
2020-08-01 08:05:00 73.6 57.5 57.7 73.6 73.6 4.4 5.3 4.4 340.3 335.7 0.00 0.0830006 77.5
2020-08-01 08:10:00 74.2 55.7 57.3 74.2 74.2 5.6 6.0 5.2 320.9 324.1 0.00 0.0878148 77.5
2020-08-01 08:15:00 74.7 54.8 57.3 74.7 74.7 5.6 6.7 5.4 344.7 340.9 0.00 0.0932771 77.5
2020-08-01 08:20:00 75.0 54.6 57.5 75.0 75.0 5.6 7.6 6.1 339.0 337.4 0.00 0.0982190 77.5
2020-08-01 08:25:00 75.6 52.6 57.1 75.6 75.6 7.6 7.6 5.7 349.5 342.5 0.00 0.1037756 77.5
2020-08-01 08:30:00 76.1 48.6 55.3 76.1 76.1 5.1 6.9 5.1 350.6 351.7 0.00 0.1091212 77.5
2020-08-01 08:35:00 76.6 49.6 56.3 76.6 76.6 4.0 6.5 4.5 303.0 321.2 0.00 0.1142668 77.5
2020-08-01 08:40:00 77.0 49.4 56.6 77.0 77.0 5.1 5.6 4.4 324.0 320.6 0.00 0.1194897 77.5
2020-08-01 08:45:00 77.4 48.3 56.4 77.4 77.4 5.5 6.5 5.3 335.1 337.2 0.00 0.1249038 77.5
2020-08-01 08:50:00 77.7 48.1 56.5 77.7 77.7 6.2 6.9 5.1 318.1 325.4 0.00 0.1300949 77.5
2020-08-01 08:55:00 77.9 48.6 57.0 77.9 77.9 6.9 7.6 5.4 322.9 319.4 0.00 0.1353570 77.5
2020-08-01 09:00:00 78.2 46.5 56.0 78.2 78.2 6.3 7.6 5.5 323.4 320.0 0.00 0.1407712 77.5
2020-08-01 09:05:00 78.6 46.8 56.6 78.6 78.6 5.5 7.8 6.2 316.5 329.8 0.00 0.1460512 77.5
2020-08-01 09:10:00 78.7 46.4 56.5 78.7 78.7 4.7 8.7 5.7 303.1 312.9 0.00 0.1514660 77.5
2020-08-01 09:15:00 79.1 46.1 56.6 79.1 79.1 4.4 6.5 4.8 332.1 303.2 0.00 0.1567312 77.5
2020-08-01 09:20:00 79.6 44.0 55.8 79.6 79.6 5.6 6.9 4.7 255.9 297.2 0.00 0.1616961 77.5
2020-08-01 09:25:00 79.8 43.2 55.5 79.8 79.8 4.0 7.4 4.7 311.5 301.7 0.00 0.1668435 77.5
2020-08-01 09:30:00 80.0 47.6 58.3 80.0 80.6 2.8 6.3 5.0 6.0 312.2 0.00 0.1720286 77.5
2020-08-01 09:35:00 80.6 45.0 57.3 80.6 80.8 5.6 7.2 5.8 328.4 330.1 0.00 0.1773015 77.5
2020-08-01 09:40:00 80.8 46.3 58.3 80.8 81.2 5.3 5.3 4.6 319.6 333.4 0.00 0.1820637 77.5
2020-08-01 09:45:00 81.2 43.4 56.9 81.2 81.2 6.7 7.2 5.3 342.3 336.0 0.00 0.1868356 77.6
2020-08-01 09:50:00 81.4 43.6 57.2 81.4 81.4 5.5 6.5 5.9 329.6 334.4 0.00 0.1916368 77.6
2020-08-01 09:55:00 81.9 44.1 57.9 81.9 81.9 6.5 7.6 6.2 340.3 322.4 0.00 0.1968372 77.6
2020-08-01 10:00:00 82.9 41.0 56.8 82.9 82.4 3.7 8.5 5.0 301.5 336.4 0.00 0.2017039 77.6
2020-08-01 10:05:00 83.3 41.1 57.3 83.3 82.8 6.5 6.7 5.1 313.1 306.7 0.00 0.2057807 77.6
2020-08-01 10:10:00 83.5 40.9 57.3 83.5 83.0 5.3 6.7 4.9 342.1 306.0 0.00 0.2103107 77.6
2020-08-01 10:15:00 83.7 41.7 58.0 83.7 83.3 5.1 6.9 5.0 313.0 321.2 0.00 0.2152431 77.7
2020-08-01 10:20:00 84.0 41.0 57.8 84.0 83.5 3.3 7.6 4.8 332.1 322.7 0.00 0.2196114 77.7
2020-08-01 10:25:00 84.5 40.0 57.5 84.5 84.5 5.1 7.1 5.0 22.2 5.7 0.00 0.2243360 77.7
2020-08-01 10:30:00 84.1 38.3 56.0 84.1 84.1 4.9 7.8 5.4 36.5 21.5 0.00 0.2288723 77.7
2020-08-01 10:35:00 84.9 38.8 57.0 84.9 84.9 4.9 6.2 3.8 40.8 32.1 0.00 0.2332056 77.8
2020-08-01 10:40:00 85.4 37.8 56.7 85.4 85.4 5.5 7.2 4.1 4.9 29.1 0.00 0.2371849 77.8
2020-08-01 10:45:00 85.3 36.2 55.5 85.3 85.3 5.6 6.9 5.0 9.5 12.4 0.00 0.2411320 77.9
2020-08-01 10:50:00 85.8 36.8 56.3 85.8 85.8 2.2 5.5 3.6 39.3 52.7 0.00 0.2351548 77.9
2020-08-01 10:55:00 86.1 36.3 56.2 86.1 86.1 5.5 5.8 4.0 342.3 357.5 0.00 0.2174715 77.9
2020-08-01 11:00:00 86.9 36.7 57.3 86.9 86.9 2.2 5.1 3.2 341.4 339.5 0.00 0.2302573 78.0
2020-08-01 11:05:00 88.0 35.3 57.2 88.0 88.0 3.7 3.8 2.7 34.8 54.2 0.00 0.2561410 78.0
2020-08-01 11:10:00 88.2 35.6 57.5 88.2 88.2 3.5 3.7 2.4 138.9 85.0 0.00 0.2482501 78.0
2020-08-01 11:15:00 88.1 34.5 56.6 88.1 88.1 2.4 5.5 3.2 202.9 148.8 0.00 0.2306633 78.1
2020-08-01 11:20:00 88.6 33.8 56.5 88.6 88.6 4.2 4.2 1.6 6.0 193.5 0.00 0.2302158 78.1
2020-08-01 11:25:00 88.6 34.4 57.0 88.6 88.6 2.2 5.1 3.1 227.5 136.0 0.00 0.2563389 78.2
2020-08-01 11:30:00 89.6 36.2 59.3 89.6 89.6 0.8 2.8 1.6 101.5 214.8 0.00 0.2650820 78.2
2020-08-01 11:35:00 89.7 33.2 57.0 89.7 89.7 3.1 4.6 2.5 131.2 197.6 0.00 0.2621602 78.3
2020-08-01 11:40:00 88.8 40.6 61.8 88.8 89.2 1.3 5.5 3.1 129.1 168.0 0.00 0.2575868 78.3
2020-08-01 11:45:00 88.6 37.1 59.1 88.6 88.6 3.8 6.7 3.5 245.0 219.2 0.00 0.2796685 78.4
2020-08-01 11:50:00 88.1 35.6 57.5 88.1 88.1 6.7 6.7 5.0 153.7 201.9 0.00 0.2819524 78.4
2020-08-01 11:55:00 88.4 35.8 57.9 88.4 88.4 5.5 7.2 4.2 230.4 178.3 0.00 0.2848619 78.5
2020-08-01 12:00:00 88.1 35.3 57.3 88.1 88.1 3.7 6.7 4.6 219.7 194.1 0.00 0.2872343 78.5
2020-08-01 12:05:00 88.9 32.6 55.8 88.9 88.9 4.9 5.5 4.1 268.4 217.8 0.00 0.2908277 78.6
2020-08-01 12:10:00 88.8 32.4 55.5 88.8 88.8 3.7 6.3 4.2 213.3 219.6 0.00 0.2927606 78.7
2020-08-01 12:15:00 89.5 26.8 51.0 89.5 89.5 3.3 5.6 4.0 120.4 210.3 0.00 0.2947535 78.7
2020-08-01 12:20:00 89.6 26.8 51.0 89.6 89.6 3.5 5.6 4.0 204.4 175.3 0.00 0.2940976 78.8
2020-08-01 12:25:00 89.6 27.9 52.1 89.6 89.6 4.4 5.3 3.7 216.1 246.5 0.00 0.2971491 78.8
2020-08-01 12:30:00 89.5 26.4 50.4 89.5 89.5 3.7 5.6 3.7 167.2 200.0 0.00 0.2983324 78.9
2020-08-01 12:35:00 90.0 27.6 52.1 90.0 90.0 4.6 5.6 3.8 256.8 229.0 0.00 0.2994682 78.9
2020-08-01 12:40:00 89.9 25.3 49.7 89.9 89.9 3.0 6.9 4.3 280.3 239.9 0.00 0.3009264 79.0
2020-08-01 12:45:00 89.7 30.5 54.6 89.7 89.7 4.4 7.1 4.6 166.1 197.0 0.00 0.3024145 79.0
2020-08-01 12:50:00 89.9 26.4 50.9 89.9 89.9 3.3 6.9 4.4 241.9 201.1 0.00 0.3028229 79.1
2020-08-01 12:55:00 90.0 27.9 52.4 90.0 90.0 5.1 5.8 4.3 247.7 222.0 0.00 0.3039327 79.1
2020-08-01 13:00:00 90.7 30.2 55.2 90.7 90.7 3.5 5.8 4.4 292.1 265.1 0.00 0.3049873 79.2
2020-08-01 13:05:00 91.4 26.7 52.5 91.4 91.4 6.3 6.3 3.5 147.7 212.9 0.00 0.3057516 79.3
2020-08-01 13:10:00 91.4 29.8 55.5 91.4 91.4 1.7 6.2 3.1 142.1 188.3 0.00 0.3064883 79.3
2020-08-01 13:15:00 91.9 29.4 55.5 91.9 91.9 1.5 4.6 2.4 132.1 197.3 0.00 0.3064843 79.4
2020-08-01 13:20:00 92.3 21.6 47.5 92.3 92.3 1.2 5.6 3.5 189.5 146.5 0.00 0.3062566 79.4
2020-08-01 13:25:00 92.1 27.6 53.9 92.1 92.1 4.0 5.3 3.0 165.1 77.4 0.00 0.3053905 79.5
2020-08-01 13:30:00 92.2 23.8 50.0 92.2 92.2 6.3 6.3 3.6 154.3 110.6 0.00 0.3052162 79.5
2020-08-01 13:35:00 92.3 22.8 48.9 92.3 92.3 3.1 6.3 4.2 167.8 147.9 0.00 0.3055294 79.6
2020-08-01 13:40:00 92.4 22.3 48.4 92.4 92.4 1.7 4.0 3.0 343.3 193.0 0.00 0.3044951 79.7
2020-08-01 13:45:00 92.8 23.9 50.6 92.8 92.8 2.6 5.6 3.5 239.2 272.2 0.00 0.3039260 79.7
2020-08-01 13:50:00 93.8 23.1 50.6 93.8 93.8 3.3 3.7 2.4 299.4 13.9 0.00 0.3035971 79.8
2020-08-01 13:55:00 93.8 21.3 48.3 93.8 93.8 5.3 6.7 4.2 0.5 304.0 0.00 0.3018358 79.8
2020-08-01 14:00:00 93.8 23.0 50.4 93.8 93.8 4.4 5.5 3.6 289.4 319.6 0.00 0.3002773 79.9
2020-08-01 14:05:00 93.9 21.3 48.5 93.9 93.9 1.7 5.1 3.0 267.8 267.1 0.00 0.2996777 79.9
2020-08-01 14:10:00 94.3 19.7 46.7 94.3 94.3 6.0 6.7 3.9 324.0 293.2 0.00 0.2992957 80.0
2020-08-01 14:15:00 94.5 20.3 47.6 94.5 94.5 5.5 6.3 3.5 0.8 10.8 0.00 0.2979355 80.0
2020-08-01 14:20:00 93.9 20.2 47.0 93.9 93.9 6.5 8.7 5.1 13.6 348.2 0.00 0.2954721 80.1
2020-08-01 14:25:00 93.6 20.8 47.5 93.6 93.6 7.1 8.0 5.5 12.1 350.2 0.00 0.2933517 80.2
2020-08-01 14:30:00 93.3 21.2 47.8 93.3 93.3 4.4 6.5 4.8 347.5 338.8 0.00 0.2911289 80.2
2020-08-01 14:35:00 93.3 20.9 47.5 93.3 93.3 1.7 4.0 2.6 56.3 41.9 0.00 0.2893167 80.3
2020-08-01 14:40:00 93.8 21.7 48.8 93.8 93.8 1.0 3.8 2.1 13.6 85.7 0.00 0.2868518 80.3
2020-08-01 14:45:00 94.0 20.6 47.6 94.0 94.0 1.3 6.0 3.7 279.4 304.3 0.00 0.2840371 80.3
2020-08-01 14:50:00 94.5 19.8 47.0 94.5 94.5 2.4 4.7 2.7 319.8 100.6 0.00 0.2817512 80.4
2020-08-01 14:55:00 95.0 22.5 50.9 95.0 95.0 4.0 4.2 3.1 35.4 5.9 0.00 0.2787217 80.4
2020-08-01 15:00:00 94.6 23.1 51.2 94.6 94.6 5.6 7.1 4.6 60.0 73.6 0.00 0.2747853 80.5
2020-08-01 15:05:00 94.8 17.3 43.6 94.8 94.8 5.3 7.1 4.2 344.8 51.5 0.00 0.2727032 80.5
2020-08-01 15:10:00 95.0 21.1 49.2 95.0 95.0 5.1 7.1 4.3 72.1 16.6 0.00 0.2699189 80.5
2020-08-01 15:15:00 94.8 18.6 45.5 94.8 94.8 5.8 7.6 5.0 45.1 34.1 0.00 0.2667510 80.6
2020-08-01 15:20:00 95.0 23.7 52.1 95.0 95.0 3.0 6.2 3.0 38.2 54.7 0.00 0.2635020 80.6
2020-08-01 15:25:00 95.1 20.1 47.9 95.1 95.1 6.9 9.4 5.2 24.4 49.5 0.00 0.2603600 80.7
2020-08-01 15:30:00 94.5 20.3 47.6 94.5 94.5 6.3 8.1 6.8 34.9 20.5 0.00 0.2569384 80.7
2020-08-01 15:35:00 94.5 26.3 54.6 94.5 94.5 2.8 7.1 3.7 16.3 39.8 0.00 0.2534432 80.7
2020-08-01 15:40:00 94.3 21.0 48.4 94.3 94.3 2.4 6.9 4.1 49.5 37.6 0.00 0.2494926 80.7
2020-08-01 15:45:00 94.9 23.3 51.7 94.9 94.9 3.7 6.2 3.7 94.5 94.7 0.00 0.2458360 80.8
2020-08-01 15:50:00 95.3 25.0 53.9 95.3 95.3 2.1 5.5 4.0 122.0 88.9 0.00 0.2420724 80.8
2020-08-01 15:55:00 95.2 21.2 49.4 95.2 95.2 6.5 8.1 5.3 41.3 37.4 0.00 0.2374644 80.8
2020-08-01 16:00:00 95.1 22.4 50.8 95.1 95.1 1.5 5.8 3.6 2.3 67.4 0.00 0.2326165 80.8
2020-08-01 16:05:00 95.3 24.0 52.8 95.3 95.3 3.7 4.9 3.1 21.0 38.9 0.00 0.2286968 80.9
2020-08-01 16:10:00 95.6 21.8 50.4 95.6 95.6 3.1 8.0 4.9 25.2 40.9 0.00 0.2247345 80.9
2020-08-01 16:15:00 95.9 22.7 51.8 95.9 95.9 4.2 5.6 3.5 54.8 59.1 0.00 0.2175038 80.9
2020-08-01 16:20:00 95.6 20.9 49.4 95.6 95.6 2.2 6.3 3.4 4.1 38.7 0.00 0.2087827 81.0
2020-08-01 16:25:00 95.8 18.7 46.6 95.8 95.8 4.4 8.0 4.4 46.7 39.0 0.00 0.2056602 81.0
2020-08-01 16:30:00 95.8 19.3 47.3 95.8 95.8 5.8 6.3 4.4 3.4 1.7 0.00 0.2022438 81.0
2020-08-01 16:35:00 96.3 19.1 47.5 96.3 96.3 4.7 6.5 3.0 27.8 8.8 0.00 0.2103514 81.0
2020-08-01 16:40:00 96.4 19.3 47.9 96.4 96.4 1.5 4.7 2.6 6.8 34.0 0.00 0.1848680 81.0
2020-08-01 16:45:00 96.0 20.1 48.6 96.0 96.0 6.2 7.2 4.3 32.8 20.9 0.00 0.1795909 81.0
2020-08-01 16:50:00 95.8 18.3 46.0 95.8 95.8 6.3 6.9 5.0 5.2 5.8 0.00 0.1636625 81.1
2020-08-01 16:55:00 95.6 22.3 51.0 95.6 95.6 3.8 6.2 4.6 92.9 14.5 0.00 0.1550077 81.1
2020-08-01 17:00:00 95.7 20.0 48.3 95.7 95.7 3.0 4.7 3.2 344.9 34.6 0.00 0.1499666 81.1
2020-08-01 17:05:00 95.8 19.0 47.0 95.8 95.8 2.4 5.3 3.8 323.9 348.6 0.00 0.1441413 81.1
2020-08-01 17:10:00 95.9 19.9 48.2 95.9 95.9 4.2 5.6 3.7 342.4 355.1 0.00 0.1254822 81.1
2020-08-01 17:15:00 95.8 20.0 48.3 95.8 95.8 4.2 5.5 4.5 299.1 346.0 0.00 0.0982088 81.1
2020-08-01 17:20:00 95.8 18.6 46.4 95.8 95.8 3.5 4.7 3.4 332.3 327.0 0.00 0.0931981 81.1
2020-08-01 17:25:00 95.4 20.4 48.5 95.4 95.4 3.3 4.0 3.4 0.9 352.8 0.00 0.0893097 81.1
2020-08-01 17:30:00 95.2 28.7 57.7 95.2 95.2 1.9 3.3 2.6 4.9 342.1 0.00 0.0836267 81.1
2020-08-01 17:35:00 95.1 21.1 49.2 95.1 95.1 2.4 3.7 1.4 11.6 66.2 0.00 0.0813424 81.1
2020-08-01 17:40:00 95.1 21.5 49.7 95.1 95.1 1.0 4.4 2.2 31.1 47.7 0.00 0.0698126 81.1
2020-08-01 17:45:00 95.0 31.4 60.0 95.0 95.0 1.5 2.2 1.3 340.6 17.0 0.00 0.0644787 81.2
2020-08-01 17:50:00 94.0 21.8 49.2 94.0 94.0 4.0 4.0 2.7 30.4 343.3 0.00 0.0614592 81.2
2020-08-01 17:55:00 94.4 21.6 49.3 94.4 94.4 4.6 4.6 2.8 24.1 28.9 0.00 0.0618801 81.2
2020-08-01 18:00:00 94.3 28.9 57.1 94.3 94.3 3.5 4.9 3.7 45.1 13.7 0.00 0.0619066 81.2
2020-08-01 18:05:00 93.8 28.7 56.5 93.8 93.8 3.1 4.6 3.2 31.0 40.0 0.00 0.0589044 81.2
2020-08-01 18:10:00 93.3 25.8 53.1 93.3 93.3 3.5 5.3 3.6 29.6 40.9 0.00 0.0670852 81.2
2020-08-01 18:15:00 93.7 26.5 54.2 93.7 93.7 3.5 5.1 3.2 46.4 41.2 0.00 0.0635431 81.2
2020-08-01 18:20:00 93.9 26.0 53.8 93.9 93.9 6.9 6.9 4.4 3.4 36.1 0.00 0.0900239 81.2
2020-08-01 18:25:00 93.7 26.3 54.0 93.7 93.7 7.6 12.2 6.8 134.1 48.5 0.00 0.0843119 81.2
2020-08-01 18:30:00 92.9 26.8 53.8 92.9 92.9 8.5 11.2 8.1 130.5 139.3 0.00 0.0842464 81.2
2020-08-01 18:35:00 92.0 28.3 54.5 92.0 92.0 10.1 10.3 7.1 144.0 134.8 0.00 0.0570632 81.2
2020-08-01 18:40:00 91.7 27.0 53.0 91.7 91.7 8.8 11.2 8.7 104.4 126.2 0.00 0.0660909 81.2
2020-08-01 18:45:00 91.6 27.6 53.5 91.6 91.6 7.2 9.6 7.0 128.0 128.2 0.00 0.0566443 81.2
2020-08-01 18:50:00 91.2 28.1 53.7 91.2 91.2 7.8 7.8 5.6 140.1 135.8 0.00 0.0569379 81.2
2020-08-01 18:55:00 90.4 29.1 53.9 90.4 90.4 5.6 7.8 5.9 130.2 135.3 0.00 0.0235506 81.2
2020-08-01 19:00:00 90.3 28.2 53.0 90.3 90.3 5.5 7.4 5.9 128.2 130.8 0.00 0.0215981 81.2
2020-08-01 19:05:00 90.0 28.3 52.9 90.0 90.0 3.8 6.2 5.1 112.8 125.0 0.00 0.0199280 81.1
2020-08-01 19:10:00 89.9 28.2 52.7 89.9 89.9 4.0 7.8 5.8 134.7 123.9 0.00 0.0177790 81.1
2020-08-01 19:15:00 89.7 28.5 52.8 89.7 89.7 5.8 8.5 5.4 139.7 127.3 0.00 0.0162463 81.1
2020-08-01 19:20:00 89.6 28.2 52.4 89.6 89.6 5.5 7.2 5.0 148.3 138.5 0.00 0.0136820 81.1
2020-08-01 19:25:00 89.2 31.9 55.4 89.2 89.2 3.8 5.3 4.1 166.4 155.8 0.00 0.0102133 81.1
2020-08-01 19:30:00 88.1 33.8 56.0 88.1 88.1 3.8 4.7 4.0 168.4 168.2 0.00 0.0072103 81.0
2020-08-01 19:35:00 87.2 35.1 56.3 87.2 87.2 2.4 4.0 2.8 145.9 149.1 0.00 0.0046300 81.0
2020-08-01 19:40:00 86.6 36.7 57.0 86.6 86.6 2.2 3.7 2.7 139.0 142.1 0.00 0.0029147 81.0
2020-08-01 19:45:00 86.1 38.3 57.8 86.1 86.1 2.6 3.3 2.6 170.6 150.6 0.00 0.0019330 81.0
2020-08-01 19:50:00 85.9 36.5 56.2 85.9 85.9 3.3 3.7 2.7 156.0 139.8 0.00 0.0012820 80.9
2020-08-01 19:55:00 87.0 29.0 50.9 87.0 87.0 8.7 12.6 5.3 124.1 126.3 0.00 0.0009671 80.9
2020-08-01 20:00:00 88.5 24.1 47.2 88.5 88.5 8.8 9.0 6.5 113.3 121.0 0.00 0.0005990 80.9
2020-08-01 20:05:00 89.2 23.9 47.6 89.2 89.2 4.2 9.7 6.5 120.6 111.3 0.00 0.0000890 80.8
2020-08-01 20:10:00 88.6 25.3 48.7 88.6 88.6 4.2 6.5 4.5 115.5 131.6 0.00 0.0000000 80.9
2020-08-01 20:15:00 87.9 25.5 48.2 87.9 87.9 4.6 6.0 4.7 159.7 127.3 0.00 0.0000000 80.8
2020-08-01 20:20:00 87.6 24.5 46.9 87.6 87.6 4.9 8.7 5.3 120.3 120.8 0.00 0.0000000 80.8
2020-08-01 20:25:00 87.9 23.4 46.0 87.9 87.9 7.4 9.0 5.8 121.4 117.7 0.00 0.0000000 80.7
2020-08-01 20:30:00 88.7 23.0 46.1 88.7 88.7 6.0 13.0 7.3 164.8 105.9 0.00 0.0000000 80.7
2020-08-01 20:35:00 87.8 24.6 47.2 87.8 87.8 7.8 9.6 6.5 122.4 134.3 0.00 0.0000000 80.7
2020-08-01 20:40:00 87.0 27.1 49.1 87.0 87.0 8.0 16.9 11.6 43.9 107.2 0.00 0.0000000 80.7
2020-08-01 20:45:00 85.0 29.4 49.6 85.0 85.0 8.7 17.1 10.1 78.8 99.8 0.00 0.0000000 80.6
2020-08-01 20:50:00 84.4 29.1 48.8 84.4 84.4 9.0 14.6 9.7 95.4 90.0 0.00 0.0000000 80.6
2020-08-01 20:55:00 83.7 29.9 48.9 83.7 83.7 3.5 11.7 6.1 203.7 89.8 0.00 0.0000000 80.6
2020-08-01 21:00:00 83.6 29.5 48.4 83.6 83.6 8.7 13.3 7.5 337.0 22.6 0.00 0.0000000 80.5
2020-08-01 21:05:00 80.5 42.9 55.9 80.5 80.5 20.5 20.5 14.0 347.2 345.4 0.00 0.0000073 80.5
2020-08-01 21:10:00 77.0 51.1 57.5 77.0 77.0 13.9 25.1 16.2 29.9 359.0 0.05 0.0000000 80.5
2020-08-01 21:15:00 72.8 59.2 57.7 72.8 72.8 15.1 22.1 11.9 90.0 47.8 0.05 0.0000170 80.4
2020-08-01 21:20:00 72.4 64.6 59.8 72.4 72.4 6.9 17.2 10.2 207.9 97.7 0.02 0.0000005 80.4
2020-08-01 21:25:00 71.0 64.9 58.6 71.0 71.0 12.6 14.2 6.4 15.2 74.1 0.00 0.0000000 80.3
2020-08-01 21:30:00 70.4 70.8 60.5 70.4 70.4 2.8 13.5 9.1 194.9 42.1 0.00 0.0000000 80.3
2020-08-01 21:35:00 70.5 72.5 61.3 70.5 70.5 3.3 4.4 2.9 226.4 208.8 0.00 0.0000000 80.3
2020-08-01 21:40:00 71.0 71.2 61.2 71.0 71.0 4.0 7.4 3.2 270.3 145.8 0.00 0.0000000 80.2
2020-08-01 21:45:00 71.9 63.3 58.8 71.9 71.9 8.3 12.6 6.0 113.8 111.0 0.01 0.0000000 80.2
2020-08-01 21:50:00 71.8 67.7 60.6 71.8 71.8 5.3 7.8 5.3 119.1 96.2 0.00 0.0000000 80.2
2020-08-01 21:55:00 71.9 64.9 59.4 71.9 71.9 7.6 9.9 6.6 99.6 100.8 0.00 0.0000000 80.1
2020-08-01 22:00:00 72.5 62.8 59.1 72.5 72.5 7.4 9.2 6.8 90.4 114.8 0.00 0.0000000 80.1
2020-08-01 22:05:00 73.1 59.4 58.1 73.1 73.1 9.2 10.3 6.8 126.0 126.0 0.00 0.0000000 80.1
2020-08-01 22:10:00 74.1 54.8 56.8 74.1 74.1 5.8 10.6 6.7 131.0 141.6 0.00 0.0000000 80.0
2020-08-01 22:15:00 75.2 52.3 56.6 75.2 75.2 4.4 5.6 3.4 176.3 126.4 0.00 0.0000000 80.0
2020-08-01 22:20:00 76.0 50.3 56.1 76.0 76.0 5.8 7.1 5.1 173.7 150.3 0.00 0.0000000 79.9
2020-08-01 22:25:00 75.9 48.6 55.1 75.9 75.9 9.0 13.3 8.4 166.4 168.5 0.00 0.0000000 79.9
2020-08-01 22:30:00 74.8 58.1 59.1 74.8 74.8 4.6 10.6 7.0 143.3 161.4 0.00 0.0002010 79.9
2020-08-01 22:35:00 75.2 53.8 57.3 75.2 75.2 5.3 7.6 4.9 106.4 114.8 0.00 0.0002465 79.8
2020-08-01 22:40:00 75.5 55.1 58.2 75.5 75.5 6.5 7.6 5.5 108.5 114.7 0.00 0.0002410 79.8
2020-08-01 22:45:00 75.2 58.1 59.5 75.2 75.2 5.3 7.1 5.6 143.1 119.6 0.00 0.0001100 79.8
2020-08-01 22:50:00 75.5 53.1 57.2 75.5 75.5 4.9 7.8 6.1 130.2 138.1 0.00 0.0001533 79.8
2020-08-01 22:55:00 75.7 53.2 57.4 75.7 75.7 4.0 7.4 5.4 159.5 136.4 0.00 0.0000858 79.7
2020-08-01 23:00:00 75.5 51.6 56.4 75.5 75.5 4.0 6.0 4.4 144.1 127.5 0.00 0.0000745 79.7
2020-08-01 23:05:00 74.3 56.3 57.8 74.3 74.3 6.0 6.0 3.6 112.9 115.8 0.01 0.0000000 79.7
2020-08-01 23:10:00 72.9 65.1 60.5 72.9 72.9 2.4 6.3 4.1 133.6 105.2 0.00 0.0000000 79.6
2020-08-01 23:15:00 72.3 64.9 59.8 72.3 72.3 3.8 4.7 3.4 148.1 127.1 0.00 0.0000000 79.6
2020-08-01 23:20:00 71.7 67.0 60.2 71.7 71.7 0.8 3.3 2.1 70.6 141.7 0.00 0.0000000 79.6
2020-08-01 23:25:00 71.6 71.3 61.8 71.6 71.6 1.3 1.7 0.6 300.6 358.6 0.00 0.0000000 79.5
2020-08-01 23:30:00 71.7 63.4 58.6 71.7 71.7 0.0 2.6 1.6 66.5 289.0 0.00 0.0000813 79.5
2020-08-01 23:35:00 72.4 70.5 62.2 72.4 72.4 3.5 4.0 2.2 301.7 316.9 0.00 0.0000275 79.5
2020-08-01 23:40:00 71.7 74.4 63.1 71.7 71.7 0.0 4.0 2.6 259.2 297.0 0.00 0.0000000 79.5
2020-08-01 23:45:00 71.2 69.6 60.7 71.2 71.2 2.4 3.5 1.8 227.4 215.3 0.00 0.0000008 79.4
2020-08-01 23:50:00 71.1 68.9 60.4 71.1 71.1 2.2 3.5 2.7 279.4 242.8 0.00 0.0000000 79.4
2020-08-01 23:55:00 70.9 71.1 61.0 70.9 70.9 4.2 4.2 3.1 277.8 273.9 0.00 0.0000000 79.4
2020-08-02 00:00:00 71.1 67.6 59.8 71.1 71.1 1.9 6.0 4.1 286.0 276.2 0.00 0.0000000 79.4

Data is courtesy of the NM Climate Center. DO NOT USE IN LEGAL PROCEEDINGS.